createdAt,value
2022-10-11T00:02:26.356Z,6.73
2022-10-11T00:04:54.569Z,5.00
2022-10-11T00:07:22.559Z,4.30
2022-10-11T00:09:50.515Z,5.53
2022-10-11T00:12:18.457Z,4.37
2022-10-11T00:14:46.409Z,4.60
2022-10-11T00:17:14.704Z,4.67
2022-10-11T00:19:44.055Z,5.80
2022-10-11T00:22:12.011Z,4.63
2022-10-11T00:24:39.968Z,3.93
2022-10-11T00:27:07.932Z,4.10
2022-10-11T00:29:36.120Z,4.43
2022-10-11T00:32:04.291Z,4.90
2022-10-11T00:34:32.255Z,4.30
2022-10-11T00:37:01.634Z,4.70
2022-10-11T00:39:29.694Z,4.93
2022-10-11T00:41:57.918Z,5.70
2022-10-11T00:44:28.137Z,5.40
2022-10-11T00:46:59.232Z,5.33
2022-10-11T00:49:35.065Z,5.90
2022-10-11T00:52:12.600Z,6.20
2022-10-11T00:54:42.925Z,4.87
2022-10-11T00:57:16.795Z,5.37
2022-10-11T00:59:47.702Z,4.70
2022-10-11T01:02:16.077Z,5.10
2022-10-11T01:04:44.490Z,4.40
2022-10-11T01:07:14.071Z,4.50
2022-10-11T01:09:42.044Z,6.00
2022-10-11T01:12:17.303Z,5.80
2022-10-11T01:15:11.455Z,5.10
2022-10-11T01:17:49.394Z,5.30
2022-10-11T01:20:33.249Z,4.47
2022-10-11T01:23:52.305Z,5.50
2022-10-11T01:26:54.328Z,4.20
2022-10-11T01:29:31.704Z,4.83
2022-10-11T01:32:09.029Z,5.47
2022-10-11T01:34:41.757Z,4.90
2022-10-11T01:37:16.253Z,5.33
2022-10-11T01:39:48.182Z,5.20
2022-10-11T01:42:37.377Z,5.00
2022-10-11T01:45:06.608Z,4.90
2022-10-11T01:47:36.198Z,4.90
2022-10-11T01:50:04.581Z,4.90
2022-10-11T01:52:36.880Z,5.47
2022-10-11T01:55:19.917Z,5.13
2022-10-11T01:58:07.513Z,5.47
2022-10-11T02:00:46.099Z,5.13
2022-10-11T02:03:22.944Z,5.40
2022-10-11T02:05:56.073Z,5.73
2022-10-11T02:08:28.858Z,5.33
2022-10-11T02:11:05.740Z,5.60
2022-10-11T02:13:39.290Z,5.47
2022-10-11T02:16:13.044Z,5.07
2022-10-11T02:18:46.678Z,5.70
2022-10-11T02:21:20.183Z,6.03
2022-10-11T02:23:52.649Z,5.70
2022-10-11T02:26:22.055Z,6.10
2022-10-11T02:28:52.257Z,6.20
2022-10-11T02:31:21.559Z,5.67
2022-10-11T02:33:59.063Z,6.10
2022-10-11T02:36:36.737Z,6.43
2022-10-11T02:39:13.256Z,6.53
2022-10-11T02:41:43.185Z,7.60
2022-10-11T02:44:17.507Z,7.50
2022-10-11T02:46:47.698Z,8.37
2022-10-11T02:49:18.898Z,7.57
2022-10-11T02:51:46.864Z,8.03
2022-10-11T02:54:14.832Z,8.80
2022-10-11T02:56:42.849Z,9.77
2022-10-11T02:59:10.854Z,9.47
2022-10-11T03:01:38.880Z,10.90
2022-10-11T03:04:06.892Z,11.33
2022-10-11T03:06:36.295Z,12.10
2022-10-11T03:09:04.433Z,14.43
2022-10-11T03:11:32.472Z,14.97
2022-10-11T03:14:00.414Z,15.10
2022-10-11T03:16:28.402Z,15.70
2022-10-11T03:18:56.365Z,15.03
2022-10-11T03:21:25.161Z,15.23
2022-10-11T03:23:54.522Z,15.77
2022-10-11T03:26:22.496Z,16.87
2022-10-11T03:28:50.485Z,15.30
2022-10-11T03:31:19.563Z,16.53
2022-10-11T03:33:47.556Z,17.07
2022-10-11T03:36:15.617Z,16.37
2022-10-11T03:38:43.752Z,18.30
2022-10-11T03:41:13.323Z,17.80
2022-10-11T03:43:41.276Z,18.37
2022-10-11T03:46:09.482Z,17.27
2022-10-11T03:48:37.599Z,16.30
2022-10-11T03:51:05.754Z,17.63
2022-10-11T03:53:33.729Z,16.13
2022-10-11T03:56:07.357Z,16.30
2022-10-11T03:58:37.684Z,15.80
2022-10-11T04:01:05.719Z,15.50
2022-10-11T04:03:33.996Z,17.57
2022-10-11T04:06:02.350Z,15.73
2022-10-11T04:08:30.574Z,17.40
2022-10-11T04:10:58.770Z,16.33
2022-10-11T04:13:26.825Z,15.23
2022-10-11T04:15:56.117Z,16.60
2022-10-11T04:18:24.091Z,15.93
2022-10-11T04:20:52.087Z,17.07
2022-10-11T04:23:20.057Z,18.20
2022-10-11T04:25:48.413Z,16.83
2022-10-11T04:28:16.504Z,17.00
2022-10-11T04:31:07.954Z,16.63
2022-10-11T04:33:39.603Z,17.50
2022-10-11T04:36:08.621Z,16.67
2022-10-11T04:38:36.839Z,17.30
2022-10-11T04:41:08.941Z,18.00
2022-10-11T04:43:37.088Z,17.03
2022-10-11T04:46:07.514Z,17.43
2022-10-11T04:48:36.290Z,16.90
2022-10-11T04:51:04.280Z,16.67
2022-10-11T04:53:32.320Z,16.87
2022-10-11T04:56:03.393Z,16.53
2022-10-11T04:58:32.693Z,18.37
2022-10-11T05:01:00.955Z,17.10
2022-10-11T05:03:30.510Z,18.20
2022-10-11T05:06:00.956Z,15.40
2022-10-11T05:08:32.556Z,16.73
2022-10-11T05:11:02.257Z,16.77
2022-10-11T05:13:30.993Z,16.90
2022-10-11T05:15:59.069Z,17.33
2022-10-11T05:18:27.758Z,18.10
2022-10-11T05:21:02.225Z,17.00
2022-10-11T05:23:30.895Z,18.07
2022-10-11T05:25:59.025Z,16.43
2022-10-11T05:28:27.391Z,18.27
2022-10-11T05:30:55.466Z,17.70
2022-10-11T05:33:23.544Z,16.47
2022-10-11T05:35:51.673Z,17.20
2022-10-11T05:38:20.962Z,17.80
2022-10-11T05:40:48.908Z,17.43
2022-10-11T05:43:16.943Z,19.43
2022-10-11T05:45:45.551Z,19.23
2022-10-11T05:48:14.253Z,18.50
2022-10-11T05:50:42.187Z,18.50
2022-10-11T05:53:10.238Z,17.00
2022-10-11T05:55:40.823Z,19.97
2022-10-11T05:58:11.211Z,17.93
2022-10-11T06:00:39.873Z,19.63
2022-10-11T06:03:09.403Z,19.17
2022-10-11T06:05:37.485Z,20.70
2022-10-11T06:08:07.213Z,19.67
2022-10-11T06:10:35.521Z,18.60
2022-10-11T06:13:04.845Z,19.60
2022-10-11T06:15:32.968Z,19.90
2022-10-11T06:18:00.918Z,18.93
2022-10-11T06:20:29.438Z,19.50
2022-10-11T06:22:59.214Z,19.67
2022-10-11T06:25:27.179Z,23.37
2022-10-11T06:27:55.161Z,22.77
2022-10-11T06:30:24.612Z,19.87
2022-10-11T06:32:52.577Z,18.20
2022-10-11T06:35:20.510Z,22.57
2022-10-11T06:37:48.475Z,18.20
2022-10-11T06:40:16.488Z,18.10
2022-10-11T06:42:48.494Z,22.43
2022-10-11T06:45:16.547Z,20.33
2022-10-11T06:47:45.813Z,21.17
2022-10-11T06:50:14.357Z,20.93
2022-10-11T06:52:42.325Z,21.13
2022-10-11T06:55:10.529Z,21.43
2022-10-11T06:57:38.512Z,20.53
2022-10-11T07:00:12.356Z,20.10
2022-10-11T07:02:40.662Z,20.43
2022-10-11T07:05:10.952Z,20.50
2022-10-11T07:07:38.911Z,19.50
2022-10-11T07:10:08.013Z,19.87
2022-10-11T07:12:35.982Z,19.30
2022-10-11T07:15:04.092Z,19.93
2022-10-11T07:17:32.032Z,19.43
2022-10-11T07:19:59.977Z,19.87
2022-10-11T07:22:29.251Z,19.27
2022-10-11T07:24:57.181Z,20.37
2022-10-11T07:27:25.165Z,18.93
2022-10-11T07:29:53.117Z,18.23
2022-10-11T07:32:21.066Z,17.50
2022-10-11T07:34:49.349Z,17.70
2022-10-11T07:37:17.337Z,18.23
2022-10-11T07:39:46.651Z,18.30
2022-10-11T07:42:14.590Z,19.67
2022-10-11T07:44:48.748Z,19.10
2022-10-11T07:47:16.677Z,18.77
2022-10-11T07:49:44.633Z,20.00
2022-10-11T07:52:12.567Z,18.07
2022-10-11T07:54:40.756Z,15.73
2022-10-11T07:57:10.067Z,18.53
2022-10-11T07:59:38.001Z,16.83
2022-10-11T08:02:06.014Z,19.60
2022-10-11T08:04:33.984Z,18.87
2022-10-11T08:07:01.942Z,17.63
2022-10-11T08:09:30.436Z,18.40
2022-10-11T08:11:58.552Z,19.10
2022-10-11T08:14:27.867Z,17.27
2022-10-11T08:16:55.835Z,18.10
2022-10-11T08:19:23.911Z,17.57
2022-10-11T08:21:51.861Z,17.47
2022-10-11T08:24:20.848Z,17.00
2022-10-11T08:26:49.257Z,18.17
2022-10-11T08:29:17.199Z,16.43
2022-10-11T08:31:46.522Z,17.67
2022-10-11T08:34:14.853Z,17.43
2022-10-11T08:36:42.806Z,16.57
2022-10-11T08:39:10.798Z,16.40
2022-10-11T08:41:41.926Z,15.70
2022-10-11T08:44:41.381Z,17.73
2022-10-11T08:47:23.906Z,21.30
2022-10-11T08:49:52.130Z,19.57
2022-10-11T08:52:24.022Z,19.47
2022-10-11T08:54:56.900Z,18.57
2022-10-11T08:57:27.737Z,22.97
2022-10-11T08:59:58.923Z,17.90
2022-10-11T09:03:06.518Z,18.67
2022-10-11T09:05:32.076Z,17.97
2022-10-11T09:08:05.871Z,18.20
2022-10-11T09:10:48.750Z,17.77
2022-10-11T09:13:34.434Z,17.07
2022-10-11T09:16:16.203Z,16.23
2022-10-11T09:18:57.939Z,17.23
2022-10-11T09:21:33.437Z,15.83
2022-10-11T09:24:16.923Z,17.60
2022-10-11T09:26:54.520Z,19.00
2022-10-11T09:29:31.358Z,16.17
2022-10-11T09:31:59.965Z,15.13
2022-10-11T09:34:32.403Z,16.40
2022-10-11T09:37:06.721Z,15.40
2022-10-11T09:39:36.355Z,16.47
2022-10-11T09:42:06.980Z,17.07
2022-10-11T09:44:38.264Z,16.13
2022-10-11T09:47:07.282Z,16.57
2022-10-11T09:49:39.963Z,17.40
2022-10-11T09:52:16.195Z,18.77
2022-10-11T09:54:46.196Z,18.83
2022-10-11T09:57:22.155Z,18.10
2022-10-11T10:00:07.167Z,17.50
2022-10-11T10:02:41.200Z,18.43
2022-10-11T10:05:20.338Z,18.03
2022-10-11T10:08:05.199Z,17.33
2022-10-11T10:10:39.977Z,17.37
2022-10-11T10:13:21.721Z,16.47
2022-10-11T10:15:51.828Z,16.30
2022-10-11T10:18:23.682Z,18.07
2022-10-11T10:20:55.681Z,14.73
2022-10-11T10:23:27.574Z,14.70
2022-10-11T10:26:12.302Z,16.17
2022-10-11T10:28:57.197Z,15.90
2022-10-11T10:31:27.489Z,14.73
2022-10-11T10:33:56.775Z,16.03
2022-10-11T10:36:30.494Z,16.00
2022-10-11T10:39:02.484Z,15.33
2022-10-11T10:41:30.433Z,15.70
2022-10-11T10:44:00.615Z,10.43
2022-10-11T10:46:41.929Z,15.30
2022-10-11T10:52:41.467Z,14.80
2022-10-11T10:55:19.798Z,14.27
2022-10-11T10:58:06.258Z,13.87
2022-10-11T11:00:42.364Z,14.47
2022-10-11T11:03:20.079Z,15.00
2022-10-11T11:05:54.393Z,13.50
2022-10-11T11:08:39.452Z,14.40
2022-10-11T11:11:17.821Z,14.30
2022-10-11T11:13:54.477Z,14.00
2022-10-11T11:16:29.354Z,13.80
2022-10-11T11:19:06.505Z,12.90
2022-10-11T11:21:43.647Z,13.53
2022-10-11T11:24:23.477Z,12.93
2022-10-11T11:26:57.228Z,14.87
2022-10-11T11:29:40.698Z,13.97
2022-10-11T11:32:17.692Z,13.30
2022-10-11T11:34:50.621Z,13.57
2022-10-11T11:37:26.147Z,14.10
2022-10-11T11:39:58.959Z,13.97
2022-10-11T11:42:35.321Z,13.30
2022-10-11T11:45:17.808Z,13.77
2022-10-11T11:47:51.440Z,13.43
2022-10-11T11:50:23.372Z,13.13
2022-10-11T11:52:55.586Z,12.93
2022-10-11T11:55:32.422Z,13.87
2022-10-11T11:58:12.154Z,14.17
2022-10-11T12:00:47.839Z,15.00
2022-10-11T12:03:27.752Z,14.30
2022-10-11T12:06:19.796Z,13.57
2022-10-11T12:08:50.804Z,13.90
2022-10-11T12:11:25.267Z,13.10
2022-10-11T12:13:54.838Z,12.60
2022-10-11T12:16:23.893Z,11.90
2022-10-11T12:19:00.125Z,13.67
2022-10-11T12:21:32.022Z,13.20
2022-10-11T12:24:01.722Z,14.97
2022-10-11T12:26:42.941Z,14.30
2022-10-11T12:29:43.465Z,13.77
2022-10-11T12:32:53.479Z,14.10
2022-10-11T12:35:48.796Z,12.93
2022-10-11T12:38:22.665Z,14.00
2022-10-11T12:40:52.531Z,12.03
2022-10-11T12:43:31.818Z,13.90
2022-10-11T12:46:40.479Z,12.47
2022-10-11T12:49:31.107Z,13.43
2022-10-11T12:52:01.843Z,11.93
2022-10-11T12:54:59.310Z,12.10
2022-10-11T12:58:01.506Z,12.30
2022-10-11T13:00:33.214Z,12.27
2022-10-11T13:03:03.426Z,12.50
2022-10-11T13:05:45.023Z,11.00
2022-10-11T13:08:18.348Z,11.00
2022-10-11T13:10:48.325Z,12.30
2022-10-11T13:13:22.145Z,11.53
2022-10-11T13:15:53.865Z,12.57
2022-10-11T13:18:24.024Z,11.37
2022-10-11T13:20:52.387Z,11.83
2022-10-11T13:23:24.226Z,12.10
2022-10-11T13:25:52.721Z,11.27
2022-10-11T13:28:21.775Z,12.63
2022-10-11T13:30:53.564Z,12.90
2022-10-11T13:33:24.591Z,10.97
2022-10-11T13:35:53.661Z,11.53
2022-10-11T13:38:23.978Z,11.33
2022-10-11T13:40:52.697Z,10.33
2022-10-11T13:43:23.154Z,11.90
2022-10-11T13:45:53.774Z,11.07
2022-10-11T13:48:22.460Z,10.90
2022-10-11T13:51:05.999Z,10.40
2022-10-11T13:53:34.083Z,11.33
2022-10-11T13:56:05.154Z,10.60
2022-10-11T13:58:36.160Z,11.13
2022-10-11T14:01:07.988Z,10.70
2022-10-11T14:03:40.405Z,11.10
2022-10-11T14:06:09.218Z,9.63
2022-10-11T14:08:40.111Z,10.20
2022-10-11T14:11:09.173Z,10.70
2022-10-11T14:13:39.171Z,9.90
2022-10-11T14:16:10.952Z,11.33
2022-10-11T14:18:45.400Z,10.60
2022-10-11T14:21:35.549Z,11.57
2022-10-11T14:24:06.008Z,10.13
2022-10-11T14:26:36.935Z,10.30
2022-10-11T14:29:09.202Z,10.23
2022-10-11T14:31:41.792Z,10.27
2022-10-11T14:34:17.272Z,10.53
2022-10-11T14:36:45.261Z,10.57
2022-10-11T14:39:17.192Z,9.97
2022-10-11T14:41:45.435Z,10.80
2022-10-11T14:44:13.916Z,17.90
2022-10-11T14:46:43.560Z,12.47
2022-10-11T14:49:15.615Z,10.60
2022-10-11T14:51:45.042Z,10.80
2022-10-11T14:54:13.531Z,10.57
2022-10-11T14:56:41.523Z,11.30
2022-10-11T14:59:12.049Z,9.73
2022-10-11T15:01:40.105Z,10.17
2022-10-11T15:04:09.754Z,11.60
2022-10-11T15:06:39.649Z,9.20
2022-10-11T15:09:08.712Z,9.83
2022-10-11T15:11:38.002Z,10.37
2022-10-11T15:14:06.467Z,9.43
2022-10-11T15:16:35.577Z,10.70
2022-10-11T15:19:03.712Z,9.67
2022-10-11T15:21:33.301Z,10.73
2022-10-11T15:24:01.223Z,10.13
2022-10-11T15:26:30.471Z,9.77
2022-10-11T15:28:58.932Z,11.63
2022-10-11T15:31:27.001Z,12.00
2022-10-11T15:33:59.305Z,11.70
2022-10-11T15:36:28.634Z,10.77
2022-10-11T15:38:57.932Z,12.27
2022-10-11T15:41:25.924Z,11.60
2022-10-11T15:43:54.570Z,12.30
2022-10-11T15:46:24.093Z,10.60
2022-10-11T15:48:52.751Z,11.17
2022-10-11T15:51:20.985Z,11.20
2022-10-11T15:53:49.135Z,11.30
2022-10-11T15:56:19.617Z,12.50
2022-10-11T15:58:47.981Z,11.93
2022-10-11T16:01:17.799Z,11.77
2022-10-11T16:03:46.791Z,10.67
2022-10-11T16:06:15.006Z,12.00
2022-10-11T16:08:43.142Z,10.93
2022-10-11T16:11:11.685Z,12.23
2022-10-11T16:13:41.013Z,12.00
2022-10-11T16:16:10.322Z,11.90
2022-10-11T16:18:38.918Z,12.80
2022-10-11T16:21:09.009Z,12.20
2022-10-11T16:23:37.634Z,12.67
2022-10-11T16:26:09.101Z,12.60
2022-10-11T16:28:37.730Z,13.23
2022-10-11T16:31:09.489Z,14.30
2022-10-11T16:33:45.565Z,13.80
2022-10-11T16:36:35.928Z,12.43
2022-10-11T16:39:07.561Z,11.47
2022-10-11T16:41:35.545Z,12.97
2022-10-11T16:44:03.707Z,14.20
2022-10-11T16:46:34.738Z,14.03
2022-10-11T16:49:03.048Z,13.93
2022-10-11T16:51:31.523Z,13.10
2022-10-11T16:53:59.523Z,13.73
2022-10-11T16:56:27.601Z,14.50
2022-10-11T16:58:56.828Z,14.17
2022-10-11T17:01:24.892Z,13.53
2022-10-11T17:03:55.650Z,13.80
2022-10-11T17:06:24.538Z,12.00
2022-10-11T17:08:52.847Z,14.00
2022-10-11T17:11:22.219Z,12.80
2022-10-11T17:13:51.557Z,12.53
2022-10-11T17:16:20.106Z,12.30
2022-10-11T17:18:48.081Z,13.93
2022-10-11T17:21:19.133Z,13.40
2022-10-11T17:23:48.409Z,13.07
2022-10-11T17:26:19.141Z,13.17
2022-10-11T17:28:47.572Z,12.70
2022-10-11T17:31:15.727Z,14.53
2022-10-11T17:33:43.818Z,14.03
2022-10-11T17:36:20.365Z,16.50
2022-10-11T17:38:49.228Z,18.10
2022-10-11T17:41:17.664Z,15.63
2022-10-11T17:43:45.836Z,16.20
2022-10-11T17:46:16.024Z,14.60
2022-10-11T17:48:45.439Z,15.67
2022-10-11T17:51:15.180Z,15.47
2022-10-11T17:53:45.592Z,15.17
2022-10-11T17:56:16.815Z,15.40
2022-10-11T17:58:45.198Z,15.33
2022-10-11T18:01:15.236Z,14.07
2022-10-11T18:03:44.239Z,15.53
2022-10-11T18:06:14.096Z,15.20
2022-10-11T18:08:42.349Z,17.27
2022-10-11T18:11:14.153Z,15.90
2022-10-11T18:13:46.077Z,18.80
2022-10-11T18:16:14.957Z,19.00
2022-10-11T18:18:43.789Z,16.00
2022-10-11T18:21:12.531Z,16.67
2022-10-11T18:23:40.988Z,15.20
2022-10-11T18:26:15.306Z,16.20
2022-10-11T18:28:43.811Z,16.20
2022-10-11T18:31:15.610Z,14.90
2022-10-11T18:33:45.846Z,14.97
2022-10-11T18:36:15.562Z,17.40
2022-10-11T18:38:46.582Z,22.30
2022-10-11T18:41:18.750Z,22.97
2022-10-11T18:43:50.770Z,16.37
2022-10-11T18:46:19.566Z,19.90
2022-10-11T18:48:49.507Z,16.67
2022-10-11T18:51:19.955Z,17.07
2022-10-11T18:53:48.432Z,16.50
2022-10-11T18:56:20.586Z,14.90
2022-10-11T18:58:49.576Z,14.70
2022-10-11T19:01:19.170Z,16.83
2022-10-11T19:03:49.836Z,16.10
2022-10-11T19:06:19.975Z,16.20
2022-10-11T19:08:51.496Z,19.10
2022-10-11T19:11:22.157Z,18.07
2022-10-11T19:13:56.191Z,14.70
2022-10-11T19:16:24.252Z,15.80
2022-10-11T19:18:53.242Z,16.03
2022-10-11T19:21:21.738Z,21.67
2022-10-11T19:23:50.465Z,19.33
2022-10-11T19:26:21.989Z,20.03
2022-10-11T19:28:55.424Z,17.80
2022-10-11T19:31:23.595Z,15.27
2022-10-11T19:33:51.532Z,15.07
2022-10-11T19:36:19.785Z,15.60
2022-10-11T19:38:49.412Z,16.13
2022-10-11T19:41:19.781Z,17.47
2022-10-11T19:43:49.121Z,17.30
2022-10-11T19:46:37.828Z,16.83
2022-10-11T19:49:08.934Z,18.53
2022-10-11T19:51:38.144Z,17.73
2022-10-11T19:54:08.299Z,17.80
2022-10-11T19:56:37.047Z,12.90
2022-10-11T19:59:07.372Z,19.70
2022-10-11T20:01:36.997Z,18.93
2022-10-11T20:04:06.998Z,19.77
2022-10-11T20:06:38.724Z,18.93
2022-10-11T20:11:55.409Z,15.60
2022-10-11T20:14:25.000Z,17.40
2022-10-11T20:16:52.991Z,16.33
2022-10-11T20:19:24.845Z,17.50
2022-10-11T20:21:55.810Z,17.57
2022-10-11T20:24:23.840Z,18.10
2022-10-11T20:26:51.778Z,18.97
2022-10-11T20:29:19.983Z,17.83
2022-10-11T20:31:49.236Z,18.50
2022-10-11T20:34:17.212Z,17.40
2022-10-11T20:36:48.883Z,17.37
2022-10-11T20:39:17.870Z,18.33
2022-10-11T20:41:46.214Z,18.23
2022-10-11T20:44:16.041Z,20.83
2022-10-11T20:46:44.008Z,20.37
2022-10-11T20:49:13.552Z,19.93
2022-10-11T20:51:43.763Z,19.07
2022-10-11T20:54:12.244Z,18.23
2022-10-11T20:56:40.830Z,17.00
2022-10-11T20:59:09.314Z,19.30
2022-10-11T21:01:39.405Z,18.10
2022-10-11T21:04:09.338Z,18.20
2022-10-11T21:06:38.747Z,17.90
2022-10-11T21:09:06.840Z,18.00
2022-10-11T21:11:35.508Z,19.30
2022-10-11T21:14:05.400Z,19.30
2022-10-11T21:16:33.975Z,20.10
2022-10-11T21:19:03.248Z,19.13
2022-10-11T21:21:31.836Z,19.17
2022-10-11T21:24:02.756Z,19.43
2022-10-11T21:26:31.768Z,18.27
2022-10-11T21:29:00.179Z,16.73
2022-10-11T21:31:33.588Z,19.80
2022-10-11T21:34:02.468Z,18.40
2022-10-11T21:36:30.428Z,18.90
2022-10-11T21:38:58.361Z,18.43
2022-10-11T21:41:30.138Z,18.60
2022-10-11T21:43:58.416Z,18.80
2022-10-11T21:46:47.404Z,19.10
2022-10-11T21:49:16.016Z,18.03
2022-10-11T21:51:44.176Z,17.00
2022-10-11T21:54:12.540Z,16.77
2022-10-11T21:56:42.188Z,18.13
2022-10-11T21:59:12.323Z,16.93
2022-10-11T22:01:41.660Z,16.80
2022-10-11T22:04:10.206Z,16.83
2022-10-11T22:06:38.766Z,16.47
2022-10-11T22:09:07.509Z,16.37
2022-10-11T22:11:35.468Z,17.77
2022-10-11T22:14:05.479Z,17.57
2022-10-11T22:16:34.599Z,18.37
2022-10-11T22:19:02.620Z,17.17
2022-10-11T22:21:30.601Z,15.30
2022-10-11T22:23:58.539Z,16.20
2022-10-11T22:26:30.024Z,16.73
2022-10-11T22:28:58.115Z,15.07
2022-10-11T22:31:27.814Z,16.20
2022-10-11T22:33:56.063Z,16.43
2022-10-11T22:36:25.006Z,16.10
2022-10-11T22:38:54.528Z,15.73
2022-10-11T22:41:23.065Z,15.77
2022-10-11T22:43:51.182Z,16.50
2022-10-11T22:46:19.372Z,15.30
2022-10-11T22:48:48.648Z,17.27
2022-10-11T22:51:16.774Z,15.13
2022-10-11T22:53:44.748Z,16.57
2022-10-11T22:56:12.712Z,17.63
2022-10-11T22:58:40.666Z,18.63
2022-10-11T23:01:09.644Z,16.90
2022-10-11T23:03:37.671Z,17.07
2022-10-11T23:06:07.346Z,16.27
2022-10-11T23:08:35.458Z,17.57
2022-10-11T23:11:05.101Z,17.73
2022-10-11T23:13:33.064Z,16.50
2022-10-11T23:16:01.090Z,18.80
2022-10-11T23:18:29.071Z,18.17
2022-10-11T23:21:00.319Z,18.63
2022-10-11T23:23:29.735Z,18.00
2022-10-11T23:26:09.296Z,17.80
2022-10-11T23:28:38.031Z,17.77
2022-10-11T23:31:10.968Z,17.90
2022-10-11T23:33:39.220Z,17.67
2022-10-11T23:36:14.031Z,17.07
2022-10-11T23:38:43.373Z,17.07
2022-10-11T23:41:11.485Z,17.47
2022-10-11T23:43:39.420Z,17.40
2022-10-11T23:46:07.356Z,16.80
2022-10-11T23:48:35.575Z,17.90
2022-10-11T23:51:03.514Z,17.00
2022-10-11T23:53:31.491Z,16.93
2022-10-11T23:56:00.789Z,16.00
2022-10-11T23:58:28.707Z,16.73
